Time;durP1;ratioP1;P1;durP2;ratioP2;P2;SDS_P1;SDS_P2;PMS_P1;PMS_P2;Temp;Humidity;BMP_temperature;BMP_pressure;BME280_temperature;BME280_humidity;BME280_pressure;Samples;Min_cycle;Max_cycle;Signal;HPM_P1;HPM_P2
2023/04/21 00:02:21;;;;;;;24.10;21.70;;;11.80;93.20;;;;;;5095807;28;20516;-54
2023/04/21 00:04:50;;;;;;;27.40;24.70;;;11.80;93.70;;;;;;5095827;28;20452;-54
2023/04/21 00:07:18;;;;;;;26.67;23.40;;;11.80;93.80;;;;;;5095710;28;20495;-54
2023/04/21 00:09:45;;;;;;;24.87;22.27;;;11.80;93.90;;;;;;5095528;28;20452;-54
2023/04/21 00:12:12;;;;;;;22.60;20.50;;;11.70;93.90;;;;;;5095386;28;20464;-55
2023/04/21 00:14:39;;;;;;;23.90;21.30;;;11.70;94.00;;;;;;5095547;28;20455;-54
2023/04/21 00:17:06;;;;;;;23.63;21.30;;;11.70;94.10;;;;;;5095451;28;20483;-54
2023/04/21 00:19:34;;;;;;;24.67;22.30;;;11.70;94.10;;;;;;5095349;28;20451;-55
2023/04/21 00:22:03;;;;;;;25.30;22.60;;;11.70;94.30;;;;;;5094863;28;20483;-54
2023/04/21 00:24:29;;;;;;;26.20;23.40;;;11.70;94.80;;;;;;5094958;28;20953;-55
2023/04/21 00:26:56;;;;;;;26.03;23.40;;;11.60;95.20;;;;;;5095229;28;20444;-55
2023/04/21 00:29:23;;;;;;;23.50;21.20;;;11.60;95.20;;;;;;5094669;28;20444;-55
2023/04/21 00:31:49;;;;;;;24.37;21.77;;;11.60;95.20;;;;;;5095061;28;20460;-55
2023/04/21 00:34:16;;;;;;;29.67;26.67;;;11.50;95.30;;;;;;5095108;28;20463;-55
2023/04/21 00:36:43;;;;;;;25.33;22.87;;;11.60;95.30;;;;;;5095079;28;20451;-55
2023/04/21 00:39:11;;;;;;;28.70;25.70;;;11.60;95.50;;;;;;5094779;28;20933;-55
2023/04/21 00:41:38;;;;;;;27.43;24.43;;;11.50;95.90;;;;;;5095914;28;20532;-55
2023/04/21 00:44:07;;;;;;;28.00;25.10;;;11.50;96.20;;;;;;5094656;28;20501;-55
2023/04/21 00:46:34;;;;;;;27.37;24.57;;;11.50;96.30;;;;;;5094829;28;20952;-55
2023/04/21 00:49:04;;;;;;;25.27;22.60;;;11.50;96.10;;;;;;5094729;28;20497;-55
2023/04/21 00:51:32;;;;;;;29.07;25.97;;;11.50;96.40;;;;;;5095757;28;20444;-58
2023/04/21 00:54:00;;;;;;;25.07;22.50;;;11.50;96.30;;;;;;5097053;28;20451;-55
2023/04/21 00:56:30;;;;;;;28.30;24.50;;;11.50;96.30;;;;;;5101065;28;20448;-55
2023/04/21 00:58:58;;;;;;;28.83;25.93;;;11.50;96.40;;;;;;5097040;28;20827;-55
2023/04/21 01:01:26;;;;;;;29.97;26.70;;;11.50;96.40;;;;;;5095041;28;20499;-55
2023/04/21 01:03:53;;;;;;;28.20;25.20;;;11.50;96.50;;;;;;5094620;28;20512;-54
2023/04/21 01:06:20;;;;;;;28.20;25.33;;;11.60;96.40;;;;;;5094477;28;20444;-54
2023/04/21 01:08:46;;;;;;;25.77;23.07;;;11.50;96.40;;;;;;5094115;28;20859;-55
2023/04/21 01:11:14;;;;;;;27.37;24.57;;;11.50;96.50;;;;;;5094304;28;20451;-54
2023/04/21 01:13:42;;;;;;;29.40;26.33;;;11.60;96.70;;;;;;5093938;28;20937;-54
2023/04/21 01:16:08;;;;;;;26.93;24.10;;;11.50;96.60;;;;;;5094094;28;20941;-54
2023/04/21 01:18:36;;;;;;;26.70;24.00;;;11.50;96.60;;;;;;5094323;28;20447;-54
2023/04/21 01:21:03;;;;;;;29.23;26.27;;;11.50;96.60;;;;;;5094052;28;20574;-54
2023/04/21 01:23:31;;;;;;;29.60;26.30;;;11.50;96.70;;;;;;5094061;28;20521;-54
2023/04/21 01:25:58;;;;;;;28.43;25.40;;;11.50;96.70;;;;;;5093720;28;20451;-54
2023/04/21 01:28:26;;;;;;;29.60;26.60;;;11.50;96.80;;;;;;5094034;28;20455;-54
2023/04/21 01:30:53;;;;;;;29.60;26.40;;;11.50;97.00;;;;;;5093958;28;20448;-54
2023/04/21 01:33:21;;;;;;;29.63;26.47;;;11.50;97.10;;;;;;5093787;28;20463;-54
2023/04/21 01:35:48;;;;;;;29.73;26.63;;;11.50;97.10;;;;;;5093830;28;20535;-54
2023/04/21 01:38:17;;;;;;;29.50;26.47;;;11.50;97.10;;;;;;5093572;28;20443;-54
2023/04/21 01:40:47;;;;;;;30.73;27.40;;;11.50;97.10;;;;;;5092738;28;20467;-54
2023/04/21 01:43:15;;;;;;;29.10;25.93;;;11.50;97.10;;;;;;5094864;28;20479;-54
2023/04/21 01:45:42;;;;;;;30.00;26.90;;;11.50;97.20;;;;;;5093728;28;20448;-55
2023/04/21 01:48:08;;;;;;;29.03;26.10;;;11.50;97.10;;;;;;5093731;28;20443;-54
2023/04/21 01:50:35;;;;;;;28.80;25.13;;;11.50;97.30;;;;;;5093745;28;20823;-54
2023/04/21 01:53:02;;;;;;;29.33;26.20;;;11.50;97.40;;;;;;5093564;28;20467;-54
2023/04/21 01:55:29;;;;;;;29.27;26.10;;;11.50;97.40;;;;;;5093592;28;20447;-54
2023/04/21 01:57:58;;;;;;;26.43;23.73;;;11.50;97.30;;;;;;5093603;28;20484;-54
2023/04/21 02:00:24;;;;;;;30.33;26.47;;;11.50;97.20;;;;;;5093626;28;20451;-54
2023/04/21 02:02:51;;;;;;;29.73;26.60;;;11.50;97.10;;;;;;5093409;28;20571;-54
2023/04/21 02:05:18;;;;;;;28.97;25.87;;;11.50;97.20;;;;;;5093538;28;20448;-54
2023/04/21 02:07:45;;;;;;;29.37;25.57;;;11.50;97.40;;;;;;5093438;28;20451;-54
2023/04/21 02:10:12;;;;;;;28.90;25.77;;;11.50;97.60;;;;;;5093524;28;20455;-54
2023/04/21 02:12:39;;;;;;;30.37;27.30;;;11.50;97.70;;;;;;5093309;28;20513;-54
2023/04/21 02:15:08;;;;;;;29.80;26.60;;;11.50;97.80;;;;;;5093409;28;20446;-54
2023/04/21 02:17:35;;;;;;;31.90;26.77;;;11.40;97.90;;;;;;5093332;28;20447;-54
2023/04/21 02:20:02;;;;;;;27.37;24.47;;;11.40;98.00;;;;;;5093030;28;20941;-54
2023/04/21 02:22:29;;;;;;;30.50;27.10;;;11.40;98.30;;;;;;5093235;28;20479;-54
2023/04/21 02:24:56;;;;;;;30.93;27.60;;;11.40;98.40;;;;;;5093370;28;20466;-54
2023/04/21 02:27:22;;;;;;;33.57;28.00;;;11.40;98.40;;;;;;5093373;28;20864;-54
2023/04/21 02:29:49;;;;;;;31.23;27.90;;;11.40;98.50;;;;;;5093362;28;20443;-54
2023/04/21 02:32:17;;;;;;;30.47;26.67;;;11.40;98.50;;;;;;5093225;28;20555;-54
2023/04/21 02:34:44;;;;;;;32.30;28.90;;;11.50;98.50;;;;;;5093478;28;20444;-54
2023/04/21 02:37:10;;;;;;;29.73;26.53;;;11.50;98.50;;;;;;5093217;28;20454;-54
2023/04/21 02:39:37;;;;;;;32.13;28.60;;;11.50;98.50;;;;;;5093070;28;20463;-55
2023/04/21 02:42:04;;;;;;;31.70;28.30;;;11.50;98.40;;;;;;5093570;28;20491;-54
2023/04/21 02:44:31;;;;;;;32.20;28.73;;;11.50;98.20;;;;;;5093161;28;20493;-54
2023/04/21 02:46:57;;;;;;;29.97;26.20;;;11.50;98.30;;;;;;5093146;28;20444;-54
2023/04/21 02:49:25;;;;;;;29.53;26.50;;;11.50;98.30;;;;;;5093142;28;20444;-54
2023/04/21 02:51:53;;;;;;;30.27;27.07;;;11.50;98.30;;;;;;5094789;28;20460;-54
2023/04/21 02:54:20;;;;;;;29.73;26.53;;;11.50;98.30;;;;;;5097498;28;20481;-55
2023/04/21 02:56:47;;;;;;;30.37;27.17;;;11.50;97.90;;;;;;5097635;28;20932;-55
2023/04/21 02:59:15;;;;;;;35.90;28.27;;;11.50;97.40;;;;;;5097918;28;20459;-55
2023/04/21 03:01:41;;;;;;;30.93;27.53;;;11.40;97.20;;;;;;5097820;28;20490;-55
2023/04/21 03:04:08;;;;;;;29.03;25.93;;;11.40;97.10;;;;;;5097232;28;20475;-54
2023/04/21 03:06:36;;;;;;;29.60;26.30;;;11.40;96.90;;;;;;5096821;28;20945;-54
2023/04/21 03:09:03;;;;;;;29.57;25.90;;;11.30;96.90;;;;;;5096908;28;20448;-54
2023/04/21 03:11:30;;;;;;;29.10;25.90;;;11.20;96.80;;;;;;5096796;28;20448;-55
2023/04/21 03:13:56;;;;;;;27.40;24.23;;;11.10;96.50;;;;;;5096692;28;20443;-55
2023/04/21 03:16:23;;;;;;;28.80;25.37;;;11.10;96.40;;;;;;5097476;28;20504;-55
2023/04/21 03:18:50;;;;;;;29.47;25.40;;;11.00;96.20;;;;;;5096598;28;20447;-55
2023/04/21 03:21:17;;;;;;;27.63;24.73;;;11.00;96.20;;;;;;5096344;28;20444;-55
2023/04/21 03:23:45;;;;;;;23.57;21.07;;;10.90;96.20;;;;;;5096426;28;20448;-55
2023/04/21 03:26:11;;;;;;;30.60;24.47;;;10.90;96.10;;;;;;5097052;28;20443;-55
2023/04/21 03:28:38;;;;;;;24.87;22.17;;;10.80;96.20;;;;;;5096610;28;20443;-55
2023/04/21 03:31:05;;;;;;;30.20;24.37;;;10.80;96.30;;;;;;5096129;28;20443;-55
2023/04/21 03:33:31;;;;;;;28.67;25.67;;;10.80;96.40;;;;;;5096351;28;20460;-55
2023/04/21 03:35:58;;;;;;;26.87;23.97;;;10.70;96.50;;;;;;5096289;28;20444;-55
2023/04/21 03:38:25;;;;;;;26.20;23.40;;;10.70;96.60;;;;;;5095917;28;20976;-55
2023/04/21 03:40:53;;;;;;;25.43;22.77;;;10.70;96.70;;;;;;5095838;28;20875;-55
2023/04/21 03:43:19;;;;;;;27.47;24.07;;;10.60;96.70;;;;;;5096522;28;20502;-55
2023/04/21 03:45:46;;;;;;;28.63;24.00;;;10.60;96.80;;;;;;5096203;28;20444;-55
2023/04/21 03:48:13;;;;;;;30.30;23.87;;;10.60;96.90;;;;;;5095981;28;20501;-55
2023/04/21 03:50:39;;;;;;;26.23;23.10;;;10.60;96.90;;;;;;5095972;28;20455;-55
2023/04/21 03:53:06;;;;;;;27.57;24.53;;;10.60;97.00;;;;;;5095839;28;20464;-55
2023/04/21 03:55:33;;;;;;;29.10;23.73;;;10.50;97.10;;;;;;5095887;28;20505;-55
2023/04/21 03:58:01;;;;;;;29.43;24.60;;;10.50;97.30;;;;;;5095897;28;20448;-55
2023/04/21 04:00:27;;;;;;;27.20;24.13;;;10.60;97.40;;;;;;5095915;28;20447;-55
2023/04/21 04:02:54;;;;;;;28.33;24.20;;;10.50;97.40;;;;;;5094934;28;20488;-55
2023/04/21 04:05:21;;;;;;;27.63;24.70;;;10.50;97.50;;;;;;5095419;28;20823;-55
2023/04/21 04:07:47;;;;;;;30.83;23.63;;;10.50;97.60;;;;;;5095768;28;20451;-55
2023/04/21 04:10:14;;;;;;;26.87;23.97;;;10.50;97.70;;;;;;5096716;28;20459;-55
2023/04/21 04:12:41;;;;;;;32.00;26.00;;;10.50;97.80;;;;;;5095659;28;20475;-55
2023/04/21 04:15:09;;;;;;;27.97;23.00;;;10.50;97.80;;;;;;5095781;28;20444;-55
2023/04/21 04:17:36;;;;;;;33.10;23.40;;;10.60;97.80;;;;;;5095600;28;20440;-55
2023/04/21 04:20:05;;;;;;;27.33;23.77;;;10.50;97.80;;;;;;5095579;28;20455;-55
2023/04/21 04:22:32;;;;;;;31.27;24.80;;;10.50;97.70;;;;;;5095339;28;20488;-55
2023/04/21 04:25:00;;;;;;;32.83;26.80;;;10.50;97.60;;;;;;5095520;28;20476;-54
2023/04/21 04:27:27;;;;;;;28.83;25.10;;;10.50;97.50;;;;;;5095141;28;20452;-55
2023/04/21 04:29:54;;;;;;;28.73;24.77;;;10.40;97.50;;;;;;5095339;28;20450;-55
2023/04/21 04:32:22;;;;;;;34.90;25.97;;;10.40;97.60;;;;;;5094950;28;20540;-55
2023/04/21 04:34:51;;;;;;;27.60;23.00;;;10.40;97.70;;;;;;5095024;28;20797;-55
2023/04/21 04:37:20;;;;;;;28.90;25.20;;;10.40;97.80;;;;;;5094985;28;20451;-55
2023/04/21 04:39:47;;;;;;;33.57;28.23;;;10.30;97.90;;;;;;5094699;28;20463;-55
2023/04/21 04:42:14;;;;;;;32.53;26.83;;;10.30;98.10;;;;;;5094785;28;20488;-55
2023/04/21 04:44:41;;;;;;;33.13;27.53;;;10.30;98.30;;;;;;5094826;28;20451;-55
2023/04/21 04:47:08;;;;;;;30.20;26.13;;;10.30;98.50;;;;;;5094896;28;20484;-55
2023/04/21 04:49:36;;;;;;;30.47;26.90;;;10.30;98.70;;;;;;5094419;28;21055;-54
2023/04/21 04:52:02;;;;;;;32.00;27.13;;;10.30;98.90;;;;;;5094340;28;20497;-55
2023/04/21 04:54:29;;;;;;;28.23;25.17;;;10.30;99.00;;;;;;5094470;28;20432;-55
2023/04/21 04:56:57;;;;;;;32.07;27.53;;;10.30;99.00;;;;;;5094586;28;20467;-55
2023/04/21 04:59:24;;;;;;;32.27;28.10;;;10.30;99.10;;;;;;5094567;28;20544;-55
2023/04/21 05:01:51;;;;;;;32.73;27.47;;;10.40;99.10;;;;;;5094342;28;20525;-55
2023/04/21 05:04:18;;;;;;;33.43;28.20;;;10.40;99.10;;;;;;5094465;28;20448;-55
2023/04/21 05:06:46;;;;;;;33.00;25.70;;;10.40;99.10;;;;;;5094123;28;20444;-55
2023/04/21 05:09:12;;;;;;;31.67;27.07;;;10.40;99.20;;;;;;5094326;28;20455;-55
2023/04/21 05:11:39;;;;;;;30.43;26.10;;;10.40;99.10;;;;;;5093973;28;20981;-55
2023/04/21 05:14:06;;;;;;;32.37;28.07;;;10.30;99.10;;;;;;5094300;28;20448;-55
2023/04/21 05:16:33;;;;;;;28.23;25.17;;;10.30;99.10;;;;;;5094277;28;20456;-55
2023/04/21 05:19:01;;;;;;;29.77;26.40;;;10.40;99.30;;;;;;5094092;28;20451;-55
2023/04/21 05:21:28;;;;;;;29.93;25.50;;;10.40;99.30;;;;;;5094886;28;20451;-55
2023/04/21 05:23:57;;;;;;;30.07;26.50;;;10.50;99.50;;;;;;5093998;28;20536;-55
2023/04/21 05:26:24;;;;;;;30.93;25.87;;;10.50;99.50;;;;;;5094016;28;20444;-55
2023/04/21 05:28:51;;;;;;;29.20;24.20;;;10.50;99.50;;;;;;5094015;28;20451;-55
2023/04/21 05:31:18;;;;;;;32.17;26.27;;;10.60;99.50;;;;;;5093880;28;20459;-55
2023/04/21 05:33:44;;;;;;;25.97;22.83;;;10.60;99.40;;;;;;5093964;28;20450;-55
2023/04/21 05:36:11;;;;;;;28.20;23.80;;;10.60;99.40;;;;;;5093482;28;20941;-55
2023/04/21 05:38:38;;;;;;;28.20;25.17;;;10.60;99.10;;;;;;5093810;28;20439;-55
2023/04/21 05:41:07;;;;;;;27.57;24.60;;;10.60;99.10;;;;;;5093367;28;20468;-55
2023/04/21 05:43:35;;;;;;;28.80;24.30;;;10.60;98.90;;;;;;5093590;28;20480;-55
2023/04/21 05:46:02;;;;;;;31.67;26.40;;;10.60;99.00;;;;;;5093674;28;20444;-55
2023/04/21 05:48:29;;;;;;;28.77;25.57;;;10.60;98.90;;;;;;5093811;28;20501;-55
2023/04/21 05:50:56;;;;;;;28.03;23.97;;;10.60;98.80;;;;;;5093560;28;20447;-55
2023/04/21 05:53:23;;;;;;;28.53;25.47;;;10.60;98.90;;;;;;5093679;28;20459;-55
2023/04/21 05:55:50;;;;;;;29.53;26.07;;;10.60;99.00;;;;;;5094091;28;20451;-55
2023/04/21 05:58:18;;;;;;;30.00;25.80;;;10.60;99.10;;;;;;5093702;28;20459;-55
2023/04/21 06:00:46;;;;;;;28.80;24.20;;;10.60;99.10;;;;;;5094155;28;20448;-55
2023/04/21 06:03:12;;;;;;;29.27;24.63;;;10.60;99.20;;;;;;5094241;28;20858;-55
2023/04/21 06:05:39;;;;;;;28.17;24.43;;;10.70;99.30;;;;;;5094183;28;20860;-55
2023/04/21 06:08:06;;;;;;;32.93;26.30;;;10.70;99.20;;;;;;5093894;28;20451;-55
2023/04/21 06:10:32;;;;;;;27.70;24.53;;;10.70;99.40;;;;;;5093571;28;20444;-55
2023/04/21 06:12:59;;;;;;;30.07;26.10;;;10.70;99.30;;;;;;5093433;28;20456;-55
2023/04/21 06:15:27;;;;;;;33.17;26.80;;;10.80;99.40;;;;;;5093463;28;20444;-55
2023/04/21 06:17:54;;;;;;;27.70;24.13;;;10.90;99.40;;;;;;5093464;28;20444;-55
2023/04/21 06:20:21;;;;;;;33.83;26.13;;;10.90;99.40;;;;;;5093073;28;20995;-55
2023/04/21 06:22:48;;;;;;;30.17;26.33;;;10.90;99.50;;;;;;5093304;28;20486;-55
2023/04/21 06:25:15;;;;;;;29.57;26.37;;;11.00;99.50;;;;;;5093323;28;20814;-55
2023/04/21 06:27:41;;;;;;;32.53;26.00;;;11.00;99.50;;;;;;5096206;28;20446;-55
2023/04/21 06:30:09;;;;;;;26.67;23.77;;;11.00;99.60;;;;;;5097411;28;20454;-55
2023/04/21 06:32:37;;;;;;;31.30;24.13;;;11.10;99.60;;;;;;5097416;28;20493;-55
2023/04/21 06:35:04;;;;;;;27.20;24.17;;;11.10;99.60;;;;;;5097103;28;20447;-55
2023/04/21 06:37:30;;;;;;;28.23;24.83;;;11.20;99.50;;;;;;5097305;28;20467;-55
2023/04/21 06:39:57;;;;;;;29.70;25.10;;;11.20;99.30;;;;;;5097067;28;20459;-55
2023/04/21 06:42:24;;;;;;;28.63;24.47;;;11.30;99.30;;;;;;5097410;28;20468;-55
2023/04/21 06:44:51;;;;;;;27.23;24.20;;;11.30;99.30;;;;;;5097091;28;20964;-55
2023/04/21 06:47:18;;;;;;;28.53;24.17;;;11.30;99.20;;;;;;5097507;28;20811;-55
2023/04/21 06:49:46;;;;;;;28.83;25.80;;;11.40;99.10;;;;;;5097108;28;20448;-55
2023/04/21 06:52:13;;;;;;;29.40;25.07;;;11.40;99.10;;;;;;5097010;28;20471;-55
2023/04/21 06:54:39;;;;;;;27.57;24.60;;;11.40;99.20;;;;;;5097035;28;20447;-55
2023/04/21 06:57:06;;;;;;;27.53;23.60;;;11.40;99.30;;;;;;5096922;28;20439;-56
2023/04/21 06:59:33;;;;;;;26.93;24.17;;;11.50;99.40;;;;;;5096611;28;20955;-56
2023/04/21 07:02:00;;;;;;;28.37;24.27;;;11.60;99.40;;;;;;5096776;28;20497;-56
2023/04/21 07:04:30;;;;;;;26.60;23.80;;;11.60;99.30;;;;;;5096410;28;20487;-56
2023/04/21 07:06:58;;;;;;;26.77;23.83;;;11.70;99.40;;;;;;5096514;28;20475;-55
2023/04/21 07:09:27;;;;;;;28.37;24.87;;;11.80;99.30;;;;;;5096687;28;20448;-56
2023/04/21 07:11:54;;;;;;;26.60;23.63;;;11.90;99.10;;;;;;5096643;28;20467;-56
2023/04/21 07:14:20;;;;;;;29.17;24.70;;;12.00;98.80;;;;;;5096667;28;20447;-56
2023/04/21 07:16:47;;;;;;;27.90;24.90;;;12.10;98.60;;;;;;5096535;28;20447;-56
2023/04/21 07:19:14;;;;;;;31.93;25.90;;;12.20;98.50;;;;;;5096450;28;20475;-56
2023/04/21 07:21:40;;;;;;;26.97;24.23;;;12.30;98.30;;;;;;5096458;28;20467;-55
2023/04/21 07:24:09;;;;;;;27.33;22.00;;;12.40;98.00;;;;;;5096295;28;20486;-55
2023/04/21 07:26:35;;;;;;;26.37;23.57;;;12.40;97.70;;;;;;5096330;28;20448;-56
2023/04/21 07:29:02;;;;;;;24.13;21.67;;;12.50;97.30;;;;;;5096412;28;20458;-55
2023/04/21 07:31:29;;;;;;;25.63;22.60;;;12.60;97.20;;;;;;5095878;28;20454;-56
2023/04/21 07:33:55;;;;;;;26.63;23.60;;;12.80;97.00;;;;;;5096238;28;20463;-55
2023/04/21 07:36:22;;;;;;;26.37;23.60;;;12.80;96.50;;;;;;5096210;28;20455;-55
2023/04/21 07:38:49;;;;;;;23.93;21.50;;;12.90;96.50;;;;;;5094911;28;20448;-55
2023/04/21 07:41:18;;;;;;;23.53;21.13;;;13.10;96.40;;;;;;5094619;28;20956;-55
2023/04/21 07:43:45;;;;;;;23.87;21.47;;;13.20;96.20;;;;;;5095930;28;20854;-55
2023/04/21 07:46:12;;;;;;;25.97;22.23;;;13.40;96.00;;;;;;5095648;28;20440;-56
2023/04/21 07:48:39;;;;;;;26.23;23.53;;;13.50;95.70;;;;;;5095954;28;20479;-55
2023/04/21 07:51:06;;;;;;;23.93;21.43;;;13.70;95.50;;;;;;5095871;28;20447;-55
2023/04/21 07:53:33;;;;;;;22.87;20.63;;;13.90;95.10;;;;;;5095777;28;20456;-55
2023/04/21 07:55:59;;;;;;;23.20;20.87;;;14.10;94.70;;;;;;5095748;28;20447;-55
2023/04/21 07:58:27;;;;;;;21.00;18.53;;;14.30;93.80;;;;;;5095725;28;20448;-55
2023/04/21 08:00:54;;;;;;;23.00;20.50;;;14.40;93.40;;;;;;5095760;28;20451;-55
2023/04/21 08:03:21;;;;;;;26.00;23.30;;;14.60;92.30;;;;;;5095224;28;20900;-56
2023/04/21 08:05:47;;;;;;;24.60;22.10;;;14.60;92.20;;;;;;5095602;28;20451;-56
2023/04/21 08:08:19;;;;;;;24.20;21.73;;;14.70;91.70;;;;;;5095614;28;20447;-55
2023/04/21 08:10:45;;;;;;;21.03;19.00;;;14.70;91.70;;;;;;5095572;28;20468;-55
2023/04/21 08:13:12;;;;;;;21.17;19.13;;;14.80;92.30;;;;;;5095394;28;20829;-55
2023/04/21 08:15:40;;;;;;;21.50;19.30;;;15.00;91.90;;;;;;5095403;28;20454;-55
2023/04/21 08:18:08;;;;;;;22.97;20.47;;;15.20;91.50;;;;;;5095111;28;20937;-55
2023/04/21 08:20:35;;;;;;;22.30;20.07;;;15.30;91.20;;;;;;5095346;28;20444;-55
2023/04/21 08:23:02;;;;;;;25.10;20.77;;;15.40;91.00;;;;;;5095175;28;20467;-55
2023/04/21 08:25:28;;;;;;;21.07;18.97;;;15.50;90.50;;;;;;5095230;28;20447;-55
2023/04/21 08:27:55;;;;;;;22.50;20.13;;;15.60;90.50;;;;;;5094874;28;20448;-56
2023/04/21 08:30:22;;;;;;;20.07;18.00;;;15.70;90.30;;;;;;5095169;28;20444;-56
2023/04/21 08:32:50;;;;;;;24.33;20.47;;;15.80;90.10;;;;;;5094603;28;20977;-55
2023/04/21 08:35:17;;;;;;;23.70;21.27;;;15.80;89.10;;;;;;5094908;28;20455;-56
2023/04/21 08:37:44;;;;;;;25.50;22.80;;;15.80;87.40;;;;;;5094567;28;20823;-55
2023/04/21 08:40:11;;;;;;;23.93;21.47;;;15.80;88.60;;;;;;5094556;28;20467;-56
2023/04/21 08:42:38;;;;;;;23.43;20.93;;;15.90;88.80;;;;;;5094755;28;20460;-55
2023/04/21 08:45:06;;;;;;;25.80;23.10;;;15.90;88.00;;;;;;5094442;28;20520;-55
2023/04/21 08:47:33;;;;;;;25.87;22.97;;;15.90;88.10;;;;;;5094379;28;20448;-56
2023/04/21 08:50:01;;;;;;;25.37;20.87;;;15.90;88.30;;;;;;5094485;28;20492;-56
2023/04/21 08:52:28;;;;;;;24.07;21.57;;;15.90;87.70;;;;;;5094623;28;20840;-56
2023/04/21 08:54:56;;;;;;;22.80;20.40;;;15.80;87.50;;;;;;5094862;28;20448;-56
2023/04/21 08:57:22;;;;;;;23.30;20.73;;;15.80;88.50;;;;;;5094719;28;20810;-56
2023/04/21 08:59:49;;;;;;;32.40;20.47;;;15.80;88.80;;;;;;5094763;28;20448;-55
2023/04/21 09:02:18;;;;;;;21.47;19.17;;;15.80;88.20;;;;;;5095472;28;20475;-55
2023/04/21 09:04:46;;;;;;;23.90;17.40;;;15.70;86.50;;;;;;5095283;28;20475;-56
2023/04/21 09:07:31;;;;;;;19.83;17.83;;;15.80;87.40;;;;;;5094781;28;20866;-56
2023/04/21 09:09:59;;;;;;;18.80;16.80;;;16.10;88.10;;;;;;5094720;28;20424;-57
2023/04/21 09:12:26;;;;;;;18.97;17.07;;;16.30;86.60;;;;;;5094560;28;20464;-56
2023/04/21 09:14:53;;;;;;;19.53;17.50;;;16.50;86.10;;;;;;5094380;28;20451;-56
2023/04/21 09:17:22;;;;;;;20.40;18.30;;;16.70;84.90;;;;;;5094258;28;20519;-56
2023/04/21 09:19:48;;;;;;;20.00;17.97;;;16.90;84.80;;;;;;5094297;28;20447;-55
2023/04/21 09:22:18;;;;;;;19.27;17.27;;;17.10;84.00;;;;;;5094207;28;20471;-56
2023/04/21 09:24:46;;;;;;;17.83;16.10;;;17.30;84.80;;;;;;5094149;28;20486;-56
2023/04/21 09:27:15;;;;;;;20.03;17.93;;;17.60;84.20;;;;;;5094168;28;20531;-56
2023/04/21 09:29:46;;;;;;;17.40;15.70;;;17.90;82.50;;;;;;5094095;28;20630;-56
2023/04/21 09:32:18;;;;;;;19.00;17.07;;;18.20;82.90;;;;;;5094033;28;20460;-56
2023/04/21 09:34:45;;;;;;;17.13;15.27;;;18.50;79.70;;;;;;5093853;28;20511;-56
2023/04/21 09:37:14;;;;;;;17.83;15.60;;;18.70;78.00;;;;;;5094149;28;20539;-56
2023/04/21 09:39:45;;;;;;;18.73;16.93;;;18.90;76.60;;;;;;5093888;28;20451;-56
2023/04/21 09:42:12;;;;;;;17.10;15.40;;;19.20;77.10;;;;;;5093846;28;20471;-56
2023/04/21 09:44:39;;;;;;;16.97;15.20;;;19.50;76.00;;;;;;5093562;28;20992;-56
2023/04/21 09:47:10;;;;;;;18.23;16.37;;;19.90;73.10;;;;;;5096194;28;20807;-56
2023/04/21 09:49:43;;;;;;;17.53;14.97;;;20.10;71.70;;;;;;5096938;28;20981;-59
2023/04/21 09:52:11;;;;;;;17.27;15.47;;;20.40;71.20;;;;;;5099984;28;20463;-57
2023/04/21 09:54:45;;;;;;;18.10;16.30;;;20.70;70.60;;;;;;5093689;28;20963;-56
2023/04/21 09:57:15;;;;;;;16.87;15.17;;;21.10;70.20;;;;;;5093762;28;20765;-56
2023/04/21 09:59:46;;;;;;;16.97;15.23;;;21.50;68.50;;;;;;5093714;28;20451;-56
2023/04/21 10:02:13;;;;;;;20.53;15.37;;;21.80;64.60;;;;;;5093134;28;20474;-56
2023/04/21 10:04:42;;;;;;;16.80;15.30;;;22.10;63.50;;;;;;5093717;28;20479;-56
2023/04/21 10:07:10;;;;;;;18.67;16.97;;;22.40;60.60;;;;;;5093402;28;20957;-56
2023/04/21 10:09:42;;;;;;;17.17;15.53;;;22.70;58.70;;;;;;5093724;28;20885;-56
2023/04/21 10:12:13;;;;;;;17.37;15.77;;;22.80;58.00;;;;;;5093489;28;20464;-56
2023/04/21 10:14:39;;;;;;;15.10;13.70;;;22.90;57.40;;;;;;5093602;28;20421;-56
2023/04/21 10:17:08;;;;;;;16.63;15.13;;;23.20;57.10;;;;;;5093558;28;20489;-56
2023/04/21 10:19:38;;;;;;;15.70;14.30;;;23.60;56.40;;;;;;5093402;28;20448;-56
2023/04/21 10:22:07;;;;;;;17.50;15.80;;;23.90;55.30;;;;;;5093065;28;21083;-56
2023/04/21 10:24:38;;;;;;;17.60;15.80;;;24.40;53.60;;;;;;5093305;28;21026;-56
2023/04/21 10:27:04;;;;;;;15.17;13.77;;;24.90;53.10;;;;;;5093382;28;20780;-56
2023/04/21 10:29:33;;;;;;;16.00;14.60;;;25.30;50.20;;;;;;5093375;28;20452;-56
2023/04/21 10:32:00;;;;;;;16.17;14.73;;;25.70;49.70;;;;;;5093395;28;20471;-56
2023/04/21 10:34:35;;;;;;;14.23;13.03;;;26.20;48.30;;;;;;5093355;28;20455;-57
2023/04/21 10:37:11;;;;;;;14.03;12.83;;;26.60;45.90;;;;;;5093453;28;20427;-57
2023/04/21 10:39:51;;;;;;;16.43;14.50;;;27.10;44.60;;;;;;5093308;28;20459;-57
2023/04/21 10:42:23;;;;;;;13.70;12.60;;;27.60;41.70;;;;;;5093343;28;20467;-57
2023/04/21 10:45:02;;;;;;;15.70;14.30;;;28.10;40.80;;;;;;5093561;28;20490;-56
2023/04/21 10:47:35;;;;;;;13.60;12.50;;;28.30;38.60;;;;;;5093467;28;20424;-56
2023/04/21 10:50:12;;;;;;;14.63;13.40;;;28.50;38.70;;;;;;5093222;28;20435;-56
2023/04/21 10:52:39;;;;;;;13.90;12.70;;;28.80;37.90;;;;;;5093080;28;20470;-57
2023/04/21 10:55:09;;;;;;;12.80;11.70;;;29.00;37.20;;;;;;5093075;28;20446;-56
2023/04/21 10:57:36;;;;;;;14.37;13.07;;;29.50;37.50;;;;;;5093141;28;20505;-56
2023/04/21 11:00:06;;;;;;;15.43;13.13;;;30.00;34.70;;;;;;5092967;28;20460;-56
2023/04/21 11:02:34;;;;;;;16.37;14.93;;;30.00;33.50;;;;;;5092906;28;20497;-56
2023/04/21 11:05:01;;;;;;;15.40;14.00;;;29.60;34.00;;;;;;5092157;28;20993;-56
2023/04/21 11:07:28;;;;;;;14.10;12.90;;;29.40;34.70;;;;;;5092955;28;20443;-57
2023/04/21 11:09:59;;;;;;;14.00;12.80;;;29.60;34.60;;;;;;5093089;28;20451;-57
2023/04/21 11:12:29;;;;;;;13.50;12.30;;;30.20;35.10;;;;;;5093441;28;20480;-57
2023/04/21 11:14:56;;;;;;;11.60;10.70;;;30.70;33.60;;;;;;5096632;28;20504;-54
2023/04/21 11:17:24;;;;;;;12.17;11.17;;;31.30;33.10;;;;;;5096607;28;20439;-54
2023/04/21 11:19:53;;;;;;;13.30;12.00;;;31.90;30.70;;;;;;5096602;28;20446;-55
2023/04/21 11:22:20;;;;;;;12.70;11.70;;;32.50;30.00;;;;;;5095395;28;20462;-55
2023/04/21 11:24:50;;;;;;;12.60;11.57;;;32.80;28.70;;;;;;5096339;28;20479;-55
2023/04/21 11:27:18;;;;;;;13.07;11.97;;;32.40;28.60;;;;;;5096392;28;20479;-55
2023/04/21 11:29:45;;;;;;;12.70;11.60;;;31.70;29.30;;;;;;5096274;28;20455;-55
2023/04/21 11:32:13;;;;;;;12.40;11.40;;;31.00;30.10;;;;;;5096286;28;20495;-55
2023/04/21 11:34:41;;;;;;;11.90;10.90;;;30.30;31.10;;;;;;5096214;28;20526;-55
2023/04/21 11:37:09;;;;;;;11.10;10.10;;;29.50;31.80;;;;;;5096443;28;20448;-55
2023/04/21 11:39:39;;;;;;;11.00;10.00;;;29.40;33.00;;;;;;5096261;28;20881;-55
2023/04/21 11:42:06;;;;;;;9.67;8.97;;;29.80;33.30;;;;;;5096008;28;20465;-55
2023/04/21 11:44:36;;;;;;;10.10;9.20;;;30.50;32.80;;;;;;5095621;28;20853;-55
2023/04/21 11:47:13;;;;;;;11.00;10.10;;;31.30;30.00;;;;;;5095953;28;20450;-55
2023/04/21 11:49:49;;;;;;;11.73;10.83;;;32.20;29.50;;;;;;5096098;28;20476;-55
2023/04/21 11:52:26;;;;;;;13.87;12.67;;;33.00;28.80;;;;;;5095833;28;20467;-55
2023/04/21 11:54:58;;;;;;;16.73;15.30;;;33.70;28.00;;;;;;5096560;28;20469;-56
2023/04/21 11:57:25;;;;;;;14.50;13.40;;;34.20;27.70;;;;;;5096430;28;20439;-56
2023/04/21 11:59:52;;;;;;;15.00;13.67;;;34.60;26.80;;;;;;5096648;28;20205;-55
2023/04/21 12:02:26;;;;;;;15.83;14.53;;;34.60;26.70;;;;;;5097243;28;20467;-55
2023/04/21 12:05:05;;;;;;;14.90;13.70;;;34.70;26.30;;;;;;5096422;28;20204;-55
2023/04/21 12:07:32;;;;;;;14.77;13.37;;;34.40;26.00;;;;;;5095987;28;20295;-55
2023/04/21 12:10:00;;;;;;;16.03;14.83;;;33.60;26.60;;;;;;5095522;28;20937;-55
2023/04/21 12:12:27;;;;;;;14.77;13.47;;;32.80;27.70;;;;;;5095558;28;20463;-55
2023/04/21 12:14:53;;;;;;;12.67;11.57;;;32.60;28.70;;;;;;5095786;28;20538;-55
2023/04/21 12:17:20;;;;;;;12.57;11.47;;;32.60;28.10;;;;;;5095444;28;20451;-56
2023/04/21 12:19:47;;;;;;;13.80;12.70;;;33.00;27.80;;;;;;5095171;28;20455;-55
2023/04/21 12:22:18;;;;;;;12.03;11.03;;;33.70;26.90;;;;;;5095264;28;20478;-55
2023/04/21 12:24:45;;;;;;;12.97;11.60;;;34.40;26.90;;;;;;5094171;28;20897;-55
2023/04/21 12:27:11;;;;;;;13.40;12.30;;;35.10;25.50;;;;;;5095025;28;20697;-55
2023/04/21 12:29:39;;;;;;;12.87;11.73;;;35.70;24.70;;;;;;5095240;28;20204;-56
2023/04/21 12:32:06;;;;;;;13.30;12.25;;;36.20;24.10;;;;;;5094942;28;20232;-55